Time;durP1;ratioP1;P1;durP2;ratioP2;P2;SDS_P1;SDS_P2;PMS_P1;PMS_P2;Temp;Humidity;BMP_temperature;BMP_pressure;BME280_temperature;BME280_humidity;BME280_pressure;Samples;Min_cycle;Max_cycle;Signal;HPM_P1;HPM_P2
2022/05/10 00:02:28;;;;;;;4.22;2.30;;;7.80;95.90;;;;;;5020056;28;20030;-61
2022/05/10 00:05:53;;;;;;;4.50;2.08;;;7.90;98.30;;;;;;5036437;28;20044;-61
2022/05/10 00:09:20;;;;;;;3.92;2.00;;;7.80;99.10;;;;;;5030512;28;20480;-61
2022/05/10 00:12:44;;;;;;;3.25;2.22;;;7.90;97.60;;;;;;5028331;28;20071;-61
2022/05/10 00:16:09;;;;;;;2.17;1.70;;;8.00;93.90;;;;;;5024146;28;20052;-61
2022/05/10 00:19:35;;;;;;;4.32;2.15;;;8.00;94.60;;;;;;5038714;28;20048;-61
2022/05/10 00:23:00;;;;;;;6.88;2.35;;;7.90;94.80;;;;;;5042623;28;20044;-60
2022/05/10 00:26:26;;;;;;;5.88;2.47;;;7.90;97.10;;;;;;5008966;28;20042;-61
2022/05/10 00:29:51;;;;;;;2.97;2.22;;;8.10;93.40;;;;;;5043925;28;20037;-61
2022/05/10 00:33:16;;;;;;;2.53;2.00;;;8.00;94.20;;;;;;5035811;28;20095;-61
2022/05/10 00:36:42;;;;;;;4.22;2.30;;;8.00;94.10;;;;;;5037726;28;20492;-60
2022/05/10 00:40:07;;;;;;;4.85;2.97;;;8.00;95.20;;;;;;5048492;28;20052;-61
2022/05/10 00:43:41;;;;;;;3.42;2.17;;;8.10;95.70;;;;;;5035348;28;20079;-61
2022/05/10 00:46:56;;;;;;;2.55;2.03;;;8.00;95.30;;;;;;5037619;28;20485;-61
2022/05/10 00:50:37;;;;;;;4.20;2.40;;;8.10;93.60;;;;;;5048475;28;20086;-61
2022/05/10 00:54:00;;;;;;;7.63;2.83;;;8.10;93.20;;;;;;5046646;28;20115;-61
2022/05/10 00:57:31;;;;;;;3.60;2.42;;;8.10;96.00;;;;;;5044944;28;20124;-60
2022/05/10 01:01:03;;;;;;;3.92;2.50;;;8.00;94.20;;;;;;5033470;28;20081;-60
2022/05/10 01:04:25;;;;;;;2.92;2.20;;;7.90;96.80;;;;;;5036906;28;20045;-61
2022/05/10 01:07:49;;;;;;;3.90;2.60;;;7.80;94.10;;;;;;5034920;28;20036;-60
2022/05/10 01:10:57;;;;;;;4.38;2.70;;;7.70;97.40;;;;;;5028821;28;20091;-61
2022/05/10 01:14:08;;;;;;;5.40;2.58;;;7.60;95.30;;;;;;5035210;28;20098;-61
2022/05/10 01:16:34;;;;;;;3.45;2.45;;;7.50;96.70;;;;;;5008747;28;20466;-61
2022/05/10 01:18:59;;;;;;;3.08;2.05;;;7.40;98.70;;;;;;5045373;28;20071;-61
2022/05/10 01:21:45;;;;;;;3.28;2.28;;;7.30;98.90;;;;;;5048491;28;20040;-61
2022/05/10 01:24:32;;;;;;;4.53;2.75;;;7.10;98.50;;;;;;5043529;28;20044;-61
2022/05/10 01:27:06;;;;;;;6.35;3.00;;;7.10;99.90;;;;;;5008347;28;20041;-60
2022/05/10 01:29:56;;;;;;;3.05;2.13;;;7.00;99.90;;;;;;5008960;28;20033;-61
2022/05/10 01:35:21;;;;;;;5.63;2.47;;;6.80;99.90;;;;;;5048527;28;20102;-61
2022/05/10 01:37:54;;;;;;;5.90;2.53;;;6.70;99.90;;;;;;5020348;28;20080;-61
2022/05/10 01:40:36;;;;;;;3.67;2.05;;;6.70;99.90;;;;;;5052552;28;20025;-61
2022/05/10 01:43:08;;;;;;;3.80;2.35;;;6.60;99.90;;;;;;5028338;28;20392;-61
2022/05/10 01:45:39;;;;;;;8.77;3.00;;;6.60;99.90;;;;;;5011445;28;20383;-61
2022/05/10 01:48:07;;;;;;;5.15;2.30;;;6.50;99.90;;;;;;5029197;28;20057;-61
2022/05/10 01:50:42;;;;;;;3.72;2.35;;;6.60;99.90;;;;;;5052119;28;20607;-61
2022/05/10 01:53:20;;;;;;;5.50;2.45;;;6.60;99.90;;;;;;5029712;28;20043;-61
2022/05/10 01:55:48;;;;;;;5.85;2.95;;;6.60;99.90;;;;;;5051959;28;20626;-61
2022/05/10 01:58:19;;;;;;;4.88;2.40;;;6.60;99.90;;;;;;5040866;28;20108;-61
2022/05/10 02:01:27;;;;;;;2.35;1.80;;;6.50;99.90;;;;;;5044521;28;20622;-61
2022/05/10 02:04:52;;;;;;;5.13;2.50;;;6.50;99.90;;;;;;5047214;28;20041;-61
2022/05/10 02:08:18;;;;;;;5.10;2.45;;;6.50;99.90;;;;;;5043766;28;20029;-61
2022/05/10 02:11:49;;;;;;;5.50;2.22;;;6.40;99.90;;;;;;5012076;28;20045;-61
2022/05/10 02:15:30;;;;;;;3.47;2.60;;;6.30;99.90;;;;;;5051599;28;20040;-60
2022/05/10 02:18:58;;;;;;;4.45;2.38;;;6.20;99.90;;;;;;5031415;28;20048;-61
2022/05/10 02:22:04;;;;;;;;;;;6.10;99.90;;;;;;5045430;28;20033;-61
2022/05/10 02:25:38;;;;;;;4.57;2.47;;;6.10;99.90;;;;;;5011731;28;19964;-61
2022/05/10 02:28:52;;;;;;;9.18;4.05;;;6.00;99.90;;;;;;5040434;28;20048;-61
2022/05/10 02:35:42;;;;;;;4.75;2.60;;;5.80;99.90;;;;;;5044820;28;20040;-61
2022/05/10 02:39:07;;;;;;;4.57;3.13;;;5.70;99.90;;;;;;5043297;28;20709;-61
2022/05/10 02:42:32;;;;;;;5.18;2.63;;;5.70;99.90;;;;;;5011417;28;20038;-61
2022/05/10 02:45:58;;;;;;;6.32;2.95;;;5.70;99.90;;;;;;5051143;28;20037;-61
2022/05/10 02:49:23;;;;;;;3.50;2.40;;;5.60;99.90;;;;;;5045142;28;20037;-61
2022/05/10 02:52:49;;;;;;;3.67;2.60;;;5.60;99.90;;;;;;5047275;28;20462;-61
2022/05/10 02:56:23;;;;;;;7.88;2.72;;;5.70;99.90;;;;;;5050815;28;20033;-61
2022/05/10 02:59:55;;;;;;;4.22;2.40;;;5.60;99.90;;;;;;5038065;28;20461;-61
2022/05/10 03:03:20;;;;;;;4.13;3.10;;;5.60;99.90;;;;;;5037710;28;20135;-60
2022/05/10 03:06:46;;;;;;;5.30;2.50;;;5.50;99.90;;;;;;5050581;28;20447;-61
2022/05/10 03:10:11;;;;;;;3.90;2.25;;;5.50;99.90;;;;;;5045265;28;20047;-69
2022/05/10 03:13:36;;;;;;;5.60;2.55;;;5.50;99.90;;;;;;5045066;28;20481;-70
2022/05/10 03:17:04;;;;;;;4.13;2.08;;;5.40;99.90;;;;;;5010748;28;20050;-70
2022/05/10 03:20:27;;;;;;;6.93;2.58;;;5.40;99.90;;;;;;5049699;28;20265;-69
2022/05/10 03:23:52;;;;;;;4.20;2.70;;;5.40;99.90;;;;;;5037094;28;20048;-69
2022/05/10 03:27:18;;;;;;;5.07;2.53;;;5.40;99.90;;;;;;5010589;28;20394;-69
2022/05/10 03:30:43;;;;;;;5.05;2.25;;;5.50;99.90;;;;;;5039081;28;20040;-70
2022/05/10 03:37:33;;;;;;;3.75;2.35;;;5.60;99.90;;;;;;5010601;28;20064;-69
2022/05/10 03:40:58;;;;;;;3.63;2.42;;;5.60;99.90;;;;;;5047080;28;20091;-69
2022/05/10 03:44:23;;;;;;;4.05;2.20;;;5.70;99.90;;;;;;5044234;28;20130;-69
2022/05/10 03:47:49;;;;;;;5.50;2.83;;;5.80;99.90;;;;;;5042068;28;20473;-69
2022/05/10 03:51:14;;;;;;;4.15;2.33;;;6.00;99.90;;;;;;5029744;28;20243;-69
2022/05/10 03:54:42;;;;;;;4.15;2.72;;;6.10;99.90;;;;;;5042302;28;20041;-69
2022/05/10 03:58:08;;;;;;;11.65;3.28;;;6.40;99.90;;;;;;5042052;28;20029;-70
2022/05/10 04:01:33;;;;;;;6.95;2.80;;;6.70;99.90;;;;;;5022812;28;20037;-69
2022/05/10 04:04:18;;;;;;;6.28;2.35;;;6.80;99.90;;;;;;5044966;28;20086;-63
2022/05/10 04:06:44;;;;;;;3.45;2.45;;;7.60;99.90;;;;;;5030145;28;20033;-63
2022/05/10 04:09:10;;;;;;;5.07;2.67;;;9.20;99.90;;;;;;5047147;28;20025;-63
2022/05/10 04:11:35;;;;;;;6.40;2.65;;;10.60;92.00;;;;;;5049303;28;20036;-63
2022/05/10 04:14:01;;;;;;;4.80;2.58;;;11.90;76.80;;;;;;5044217;28;20048;-63
2022/05/10 04:16:26;;;;;;;7.20;2.75;;;12.90;64.70;;;;;;5049084;28;20132;-64
2022/05/10 04:18:52;;;;;;;6.57;2.88;;;14.00;56.80;;;;;;5042824;28;20029;-63
2022/05/10 04:21:18;;;;;;;5.30;2.20;;;15.00;50.10;;;;;;5049595;28;20032;-63
2022/05/10 04:23:43;;;;;;;9.10;2.70;;;15.80;43.00;;;;;;5041773;28;20037;-63
2022/05/10 04:26:11;;;;;;;12.90;3.17;;;16.70;41.10;;;;;;5039221;28;20037;-63
2022/05/10 04:28:37;;;;;;;5.85;2.95;;;17.40;36.00;;;;;;5009727;28;20029;-63
2022/05/10 04:31:04;;;;;;;7.78;2.65;;;18.10;34.60;;;;;;5046320;28;20795;-63
2022/05/10 04:33:29;;;;;;;4.70;2.58;;;18.70;31.20;;;;;;5049406;28;20052;-63
2022/05/10 04:35:55;;;;;;;3.78;2.65;;;19.40;29.60;;;;;;5029425;28;20493;-63
2022/05/10 04:38:20;;;;;;;4.95;2.65;;;19.80;27.70;;;;;;5049432;28;20496;-63
2022/05/10 04:43:44;;;;;;;3.63;2.80;;;20.50;25.90;;;;;;5006519;28;20041;-63
2022/05/10 04:46:10;;;;;;;5.43;2.65;;;20.60;23.60;;;;;;5046644;28;20025;-63
2022/05/10 04:48:36;;;;;;;5.45;2.83;;;20.50;24.10;;;;;;5049172;28;20048;-63
2022/05/10 04:51:05;;;;;;;5.80;3.38;;;21.00;20.90;;;;;;5029958;28;20807;-63
2022/05/10 04:53:30;;;;;;;5.00;2.78;;;21.70;20.00;;;;;;5048891;28;20498;-63
2022/05/10 04:55:56;;;;;;;6.97;2.88;;;21.70;18.10;;;;;;5029404;28;20040;-63
2022/05/10 04:58:22;;;;;;;4.30;2.97;;;21.60;18.00;;;;;;5048918;28;20096;-63
2022/05/10 05:00:47;;;;;;;5.72;2.97;;;22.10;16.50;;;;;;5023979;28;20064;-63
2022/05/10 05:03:13;;;;;;;5.50;3.05;;;22.80;16.50;;;;;;5048773;28;20033;-63
2022/05/10 05:05:38;;;;;;;3.58;2.35;;;23.60;14.40;;;;;;5029194;28;20018;-63
2022/05/10 05:08:04;;;;;;;4.18;2.58;;;24.20;9.20;;;;;;5046494;28;20215;-63
2022/05/10 05:10:30;;;;;;;4.40;2.80;;;25.00;10.20;;;;;;5029538;28;20505;-63
2022/05/10 05:12:55;;;;;;;5.95;3.00;;;25.40;10.20;;;;;;5043114;28;20583;-61
2022/05/10 05:15:21;;;;;;;5.10;3.13;;;25.60;9.00;;;;;;5045651;28;20041;-61
2022/05/10 05:17:46;;;;;;;4.07;3.00;;;25.80;8.50;;;;;;5025126;28;20051;-62
2022/05/10 05:20:12;;;;;;;5.53;2.53;;;25.60;8.30;;;;;;5047949;28;20025;-61
2022/05/10 05:22:38;;;;;;;6.72;3.40;;;26.50;8.30;;;;;;5033932;28;20029;-61
2022/05/10 05:25:06;;;;;;;6.28;2.90;;;27.30;7.80;;;;;;5048391;28;20052;-62
2022/05/10 05:27:32;;;;;;;8.00;2.83;;;27.30;6.10;;;;;;5032692;28;20100;-62
2022/05/10 05:29:57;;;;;;;6.57;3.25;;;27.30;6.50;;;;;;5048674;28;20454;-62
2022/05/10 05:32:27;;;;;;;5.68;3.40;;;28.00;4.70;;;;;;5031934;28;20528;-62
2022/05/10 05:34:53;;;;;;;6.47;3.63;;;28.80;4.80;;;;;;5048269;28;20493;-62
2022/05/10 05:37:34;;;;;;;6.18;3.38;;;29.20;4.60;;;;;;5031228;28;20124;-61
2022/05/10 05:40:13;;;;;;;5.10;3.42;;;29.30;2.20;;;;;;5048529;28;20070;-61
2022/05/10 05:42:39;;;;;;;3.50;2.70;;;29.70;1.40;;;;;;5020559;28;20087;-61
2022/05/10 05:45:07;;;;;;;6.82;2.97;;;29.10;1.00;;;;;;5048358;28;20037;-61
2022/05/10 05:47:32;;;;;;;6.60;3.28;;;29.40;2.60;;;;;;5032891;28;20029;-60
2022/05/10 05:49:58;;;;;;;5.82;3.42;;;29.70;1.90;;;;;;5048122;28;20116;-61
2022/05/10 05:52:24;;;;;;;4.55;3.05;;;29.80;2.10;;;;;;5031841;28;20087;-60
2022/05/10 05:54:51;;;;;;;7.47;3.78;;;30.30;1.00;;;;;;5048038;28;20029;-60
2022/05/10 05:57:16;;;;;;;7.03;3.85;;;31.30;1.00;;;;;;5030620;28;20062;-61
2022/05/10 05:59:42;;;;;;;5.80;3.40;;;31.30;1.00;;;;;;5040975;28;20018;-60
2022/05/10 06:02:19;;;;;;;7.78;3.35;;;31.40;1.30;;;;;;5029745;28;20106;-61
2022/05/10 06:05:25;;;;;;;4.85;2.85;;;31.30;1.00;;;;;;5048113;28;20029;-61
2022/05/10 06:08:50;;;;;;;5.35;3.13;;;30.80;1.00;;;;;;5042308;28;20481;-61
2022/05/10 06:12:16;;;;;;;6.93;3.13;;;30.70;1.00;;;;;;5026047;28;20037;-61
2022/05/10 06:15:41;;;;;;;8.00;3.63;;;28.40;1.00;;;;;;5021429;28;20048;-61
2022/05/10 06:19:06;;;;;;;7.30;3.10;;;27.10;1.00;;;;;;5035798;28;20348;-62
2022/05/10 06:22:32;;;;;;;8.80;3.50;;;27.60;1.00;;;;;;5033748;28;20037;-61
2022/05/10 06:25:57;;;;;;;8.15;3.83;;;29.20;1.00;;;;;;5036391;28;20051;-62
2022/05/10 06:29:22;;;;;;;4.55;3.13;;;30.50;1.00;;;;;;5040324;28;20092;-62
2022/05/10 06:32:48;;;;;;;5.72;3.67;;;31.60;1.00;;;;;;5040528;28;20045;-62
2022/05/10 06:36:13;;;;;;;4.65;3.38;;;32.70;1.00;;;;;;5044855;28;20032;-62
2022/05/10 06:39:38;;;;;;;5.95;3.05;;;32.90;1.00;;;;;;5010603;28;20038;-63
2022/05/10 06:43:04;;;;;;;5.80;3.35;;;34.00;1.00;;;;;;5046772;28;20049;-63
2022/05/10 06:46:32;;;;;;;6.15;3.58;;;32.00;1.00;;;;;;5018684;28;20455;-63
2022/05/10 06:49:57;;;;;;;6.97;3.13;;;32.20;1.00;;;;;;5049959;28;20480;-63
2022/05/10 06:53:23;;;;;;;9.70;3.28;;;33.50;1.00;;;;;;5049921;28;20052;-63
2022/05/10 06:56:48;;;;;;;3.67;2.80;;;35.10;1.00;;;;;;5041584;28;20045;-63
2022/05/10 06:59:33;;;;;;;4.55;2.80;;;35.30;1.00;;;;;;5043746;28;20035;-60
2022/05/10 07:02:39;;;;;;;4.88;3.30;;;36.60;1.00;;;;;;5045986;28;20388;-61
2022/05/10 07:06:04;;;;;;;4.65;2.63;;;37.60;1.00;;;;;;5034944;28;20667;-61
2022/05/10 07:09:29;;;;;;;7.18;3.22;;;38.50;1.00;;;;;;5008385;28;20096;-62
2022/05/10 07:12:55;;;;;;;4.20;2.70;;;39.00;1.00;;;;;;5049660;28;20497;-70
2022/05/10 07:16:20;;;;;;;4.65;3.15;;;38.80;1.00;;;;;;5043830;28;20049;-70
2022/05/10 07:19:46;;;;;;;3.75;2.83;;;37.70;1.00;;;;;;5036254;28;20040;-72
2022/05/10 07:23:11;;;;;;;4.95;2.95;;;36.70;1.00;;;;;;5009799;28;20199;-70
2022/05/10 07:26:40;;;;;;;4.50;2.80;;;35.30;1.00;;;;;;5044309;28;20036;-72
2022/05/10 07:29:22;;;;;;;6.97;3.13;;;34.80;1.00;;;;;;5042439;28;20496;-70
2022/05/10 07:31:48;;;;;;;4.38;2.70;;;35.20;1.00;;;;;;5037033;28;20027;-71
2022/05/10 07:34:14;;;;;;;4.45;2.80;;;36.60;1.00;;;;;;5049237;28;20419;-71
2022/05/10 07:36:40;;;;;;;3.60;2.40;;;36.70;1.00;;;;;;5034826;28;20031;-71
2022/05/10 07:39:08;;;;;;;5.90;2.60;;;36.50;1.00;;;;;;5049124;28;20033;-70
2022/05/10 07:41:35;;;;;;;4.75;2.80;;;36.00;1.00;;;;;;5034660;28;20384;-71
2022/05/10 07:44:01;;;;;;;3.70;2.60;;;35.20;1.00;;;;;;5049203;28;20033;-71
2022/05/10 07:46:26;;;;;;;6.53;2.80;;;34.60;1.00;;;;;;5040620;28;20627;-71
2022/05/10 07:48:52;;;;;;;6.32;3.10;;;34.40;1.00;;;;;;5049017;28;20029;-71
2022/05/10 07:51:19;;;;;;;5.82;2.40;;;34.90;1.00;;;;;;5047027;28;20025;-72
2022/05/10 07:53:45;;;;;;;2.70;2.25;;;35.30;1.00;;;;;;5049068;28;20108;-71
2022/05/10 07:56:11;;;;;;;4.18;2.53;;;35.50;1.00;;;;;;5047139;28;20119;-68
2022/05/10 07:58:36;;;;;;;3.67;2.63;;;36.80;1.00;;;;;;5048661;28;20025;-71
2022/05/10 08:01:42;;;;;;;5.00;2.90;;;37.50;1.00;;;;;;5043207;28;20033;-71
2022/05/10 08:05:07;;;;;;;4.40;2.47;;;37.20;1.00;;;;;;5048758;28;20045;-69
2022/05/10 08:08:36;;;;;;;3.75;2.60;;;38.00;1.00;;;;;;5043053;28;20044;-69
2022/05/10 08:12:00;;;;;;;4.45;2.78;;;38.30;1.00;;;;;;5042388;28;20029;-71
2022/05/10 08:15:26;;;;;;;3.88;2.50;;;37.80;1.00;;;;;;5009118;28;20049;-71
2022/05/10 08:18:51;;;;;;;5.55;2.55;;;37.60;1.00;;;;;;5048476;28;20083;-70
2022/05/10 08:22:17;;;;;;;5.80;2.92;;;37.10;1.00;;;;;;5035584;28;20040;-70
2022/05/10 08:25:42;;;;;;;4.05;2.50;;;38.30;1.00;;;;;;5044488;28;20044;-69
2022/05/10 08:29:07;;;;;;;4.10;2.55;;;38.50;1.00;;;;;;5048204;28;20653;-71
2022/05/10 08:32:33;;;;;;;4.22;2.45;;;37.80;1.00;;;;;;5042602;28;20104;-71
2022/05/10 08:35:58;;;;;;;5.53;2.53;;;37.70;1.00;;;;;;5044447;28;20037;-72
2022/05/10 08:39:23;;;;;;;4.78;2.78;;;37.70;1.00;;;;;;5047360;28;20029;-69
2022/05/10 08:42:49;;;;;;;4.93;2.50;;;38.60;1.00;;;;;;5029850;28;20045;-70
2022/05/10 08:46:14;;;;;;;3.53;2.42;;;37.60;1.00;;;;;;5044543;28;20037;-71
2022/05/10 08:49:51;;;;;;;5.85;2.90;;;38.10;1.00;;;;;;5041573;28;20033;-73
2022/05/10 08:53:20;;;;;;;4.47;2.30;;;38.40;1.00;;;;;;5044606;28;20432;-72
2022/05/10 08:56:46;;;;;;;5.10;2.33;;;37.90;1.00;;;;;;5035049;28;20527;-73
2022/05/10 09:00:13;;;;;;;3.80;2.40;;;38.10;1.00;;;;;;5009721;28;20041;-72
2022/05/10 09:03:49;;;;;;;5.38;2.72;;;38.20;1.00;;;;;;5045547;28;20049;-72
2022/05/10 09:07:13;;;;;;;5.45;3.03;;;37.40;1.00;;;;;;5044331;28;20033;-69
2022/05/10 09:10:57;;;;;;;7.38;2.80;;;37.00;1.00;;;;;;5035653;28;20033;-71
2022/05/10 09:13:45;;;;;;;4.72;2.58;;;35.70;1.00;;;;;;5045233;28;20044;-71
2022/05/10 09:16:13;;;;;;;4.60;2.22;;;35.10;1.00;;;;;;5035704;28;20053;-72
2022/05/10 09:18:46;;;;;;;3.00;2.65;;;36.10;1.00;;;;;;5047161;28;20504;-72
2022/05/10 09:21:37;;;;;;;3.13;2.30;;;36.80;1.00;;;;;;5023394;28;20025;-72
2022/05/10 09:24:15;;;;;;;5.93;2.40;;;37.10;1.00;;;;;;5047086;28;20033;-73
2022/05/10 09:26:50;;;;;;;4.32;2.60;;;37.30;1.00;;;;;;5031076;28;20068;-72
2022/05/10 09:29:37;;;;;;;4.07;2.35;;;38.30;1.00;;;;;;5007943;28;20056;-70
2022/05/10 09:36:10;;;;;;;2.55;1.77;;;37.90;1.00;;;;;;5011034;28;20057;-72
2022/05/10 09:39:33;;;;;;;3.05;1.75;;;38.40;1.00;;;;;;5037107;28;20057;-73
2022/05/10 09:43:07;;;;;;;3.25;1.95;;;38.40;1.00;;;;;;5034655;28;20509;-71
2022/05/10 09:46:45;;;;;;;5.22;1.65;;;37.20;1.00;;;;;;5038953;28;20041;-73
2022/05/10 09:50:10;;;;;;;5.40;2.33;;;36.50;1.00;;;;;;5029448;28;20041;-73
2022/05/10 09:53:08;;;;;;;4.68;2.03;;;36.10;1.00;;;;;;5046990;28;20132;-72
2022/05/10 09:56:22;;;;;;;3.60;1.85;;;36.00;1.00;;;;;;5031418;28;20136;-71
2022/05/10 09:59:34;;;;;;;1.80;1.67;;;35.70;1.00;;;;;;5047554;28;20086;-72
2022/05/10 10:03:05;;;;;;;4.43;1.60;;;34.90;1.00;;;;;;5044759;28;20049;-71
2022/05/10 10:06:11;;;;;;;6.72;2.55;;;33.50;1.00;;;;;;5014689;28;20388;-66
2022/05/10 10:09:48;;;;;;;5.82;2.30;;;31.20;1.00;;;;;;5011044;28;20034;-67
2022/05/10 10:13:14;;;;;;;5.75;2.33;;;30.10;1.00;;;;;;5046909;28;20041;-67
2022/05/10 10:16:38;;;;;;;3.90;1.98;;;29.70;1.00;;;;;;5042829;28;20540;-67
2022/05/10 10:19:24;;;;;;;4.90;2.45;;;29.50;1.00;;;;;;5047545;28;20060;-67
2022/05/10 10:22:52;;;;;;;2.70;1.80;;;28.90;1.00;;;;;;5029488;28;20095;-68
2022/05/10 10:25:57;;;;;;;4.20;2.15;;;28.10;1.00;;;;;;5044617;28;20541;-67
2022/05/10 10:29:38;;;;;;;6.68;2.03;;;27.90;1.00;;;;;;5037191;28;20041;-66
2022/05/10 10:33:07;;;;;;;3.75;2.17;;;27.80;1.00;;;;;;5039338;28;20124;-67
2022/05/10 10:36:32;;;;;;;3.67;2.25;;;27.60;1.00;;;;;;5042187;28;20396;-65
2022/05/10 10:40:10;;;;;;;3.50;1.80;;;27.30;1.00;;;;;;5043549;28;20045;-66
2022/05/10 10:43:41;;;;;;;5.85;2.20;;;27.00;1.00;;;;;;5010536;28;20600;-67
2022/05/10 10:47:24;;;;;;;5.88;1.85;;;26.70;1.00;;;;;;5047340;28;20037;-66
2022/05/10 10:50:35;;;;;;;3.75;1.90;;;26.70;1.40;;;;;;5036976;28;20370;-66
2022/05/10 10:54:01;;;;;;;2.65;1.55;;;26.80;1.00;;;;;;5032966;28;20045;-66
2022/05/10 10:57:25;;;;;;;5.25;2.50;;;26.80;1.00;;;;;;5049771;28;20037;-68
2022/05/10 11:00:53;;;;;;;4.93;2.28;;;26.50;1.70;;;;;;5029919;28;21068;-67
2022/05/10 11:04:08;;;;;;;4.70;2.47;;;26.30;1.00;;;;;;5047944;28;20053;-68
2022/05/10 11:07:33;;;;;;;3.58;2.13;;;26.10;2.00;;;;;;5038824;28;20043;-67
2022/05/10 11:10:45;;;;;;;3.55;1.90;;;26.20;2.20;;;;;;5044137;28;20040;-61
2022/05/10 11:13:39;;;;;;;7.03;2.75;;;26.50;1.40;;;;;;5034810;28;20040;-61
2022/05/10 11:16:28;;;;;;;4.95;2.60;;;26.60;1.60;;;;;;5049273;28;20072;-61
2022/05/10 11:19:32;;;;;;;7.28;2.53;;;26.80;2.10;;;;;;5035725;28;20028;-61
2022/05/10 11:22:15;;;;;;;2.60;2.10;;;26.80;1.00;;;;;;5009994;28;20481;-61
2022/05/10 11:25:12;;;;;;;2.67;1.70;;;26.80;1.00;;;;;;5042566;28;20033;-62
2022/05/10 11:28:20;;;;;;;4.13;1.92;;;27.00;1.50;;;;;;5009404;28;20030;-62
2022/05/10 11:31:22;;;;;;;2.30;1.80;;;27.30;1.80;;;;;;5009811;28;20037;-62
2022/05/10 11:34:10;;;;;;;2.97;1.80;;;27.50;1.40;;;;;;5022369;28;20032;-61
2022/05/10 11:37:36;;;;;;;1.92;1.73;;;27.70;1.00;;;;;;5009444;28;20481;-61
2022/05/10 11:40:53;;;;;;;5.13;2.00;;;27.80;1.00;;;;;;5048783;28;20079;-61
2022/05/10 11:43:47;;;;;;;4.03;2.10;;;27.80;1.00;;;;;;5036180;28;20092;-61
2022/05/10 11:47:08;;;;;;;3.53;2.10;;;27.90;1.00;;;;;;5037887;28;20044;-61
2022/05/10 11:50:03;;;;;;;2.35;1.70;;;28.10;1.20;;;;;;5038009;28;20037;-62
2022/05/10 11:52:50;;;;;;;4.22;2.53;;;28.40;1.00;;;;;;5049030;28;20032;-62
2022/05/10 11:55:31;;;;;;;4.57;2.15;;;28.00;1.00;;;;;;5017546;28;20044;-61
2022/05/10 11:58:37;;;;;;;2.63;2.13;;;28.00;1.00;;;;;;5048894;28;20022;-61
2022/05/10 12:01:44;;;;;;;4.50;1.83;;;27.90;1.50;;;;;;5032204;28;20086;-61
2022/05/10 12:04:58;;;;;;;3.33;1.80;;;28.10;1.20;;;;;;5028725;28;20051;-61
2022/05/10 12:08:24;;;;;;;4.43;2.08;;;28.20;1.00;;;;;;5037251;28;20076;-61
2022/05/10 12:11:27;;;;;;;2.97;2.40;;;28.10;1.40;;;;;;5039108;28;20032;-61
2022/05/10 12:21:34;;;;;;;2.67;1.98;;;28.00;1.50;;;;;;5026843;28;20047;-61
2022/05/10 12:24:19;;;;;;;4.93;2.00;;;27.90;1.60;;;;;;5037192;28;20087;-61
2022/05/10 12:27:11;;;;;;;3.88;1.77;;;28.10;1.40;;;;;;5048445;28;20039;-61
2022/05/10 12:29:56;;;;;;;3.25;1.98;;;28.10;1.30;;;;;;5024051;28;20044;-62
2022/05/10 12:33:30;;;;;;;3.42;2.20;;;28.20;1.10;;;;;;5042872;28;20033;-63
2022/05/10 12:36:59;;;;;;;5.88;2.45;;;28.10;1.40;;;;;;5028113;28;20037;-62
2022/05/10 12:40:10;;;;;;;3.08;2.33;;;27.80;1.00;;;;;;5040517;28;20461;-61
2022/05/10 12:43:35;;;;;;;3.38;2.22;;;27.80;1.10;;;;;;5033398;28;20053;-61
2022/05/10 12:46:49;;;;;;;4.75;2.22;;;28.00;1.50;;;;;;5034245;28;20132;-62
2022/05/10 12:50:23;;;;;;;3.60;2.00;;;28.10;1.10;;;;;;5021115;28;20389;-61
2022/05/10 12:53:48;;;;;;;4.38;2.03;;;28.20;1.20;;;;;;5023688;28;20033;-62
2022/05/10 12:57:16;;;;;;;3.30;2.45;;;28.10;1.30;;;;;;5028721;28;20045;-61
2022/05/10 13:00:48;;;;;;;3.85;2.05;;;28.40;1.60;;;;;;5032681;28;20031;-62
2022/05/10 13:04:16;;;;;;;6.35;2.53;;;28.40;1.00;;;;;;5008193;28;20247;-62
2022/05/10 13:07:24;;;;;;;3.08;2.28;;;28.30;1.00;;;;;;5044874;28;20061;-62
2022/05/10 13:10:50;;;;;;;5.22;2.63;;;28.30;1.00;;;;;;5034698;28;20112;-62
2022/05/10 13:14:15;;;;;;;7.82;2.45;;;28.30;1.00;;;;;;5034802;28;20585;-62
2022/05/10 13:17:01;;;;;;;5.72;2.15;;;28.20;1.00;;;;;;5035216;28;20106;-62
2022/05/10 13:20:08;;;;;;;4.00;2.50;;;28.10;1.00;;;;;;5045764;28;20036;-61
2022/05/10 13:23:37;;;;;;;2.40;2.20;;;28.00;1.40;;;;;;5033606;28;20068;-61
2022/05/10 13:27:18;;;;;;;2.70;2.10;;;27.80;1.10;;;;;;5036269;28;20037;-62
2022/05/10 13:30:59;;;;;;;9.32;2.20;;;27.90;1.20;;;;;;5046900;28;20571;-61
2022/05/10 13:34:27;;;;;;;3.08;2.45;;;28.20;1.20;;;;;;5041155;28;20044;-62
2022/05/10 13:37:53;;;;;;;5.60;2.10;;;28.20;1.00;;;;;;5033940;28;20036;-62
2022/05/10 13:41:02;;;;;;;6.35;2.42;;;28.40;1.00;;;;;;5007281;28;20386;-62
2022/05/10 13:44:29;;;;;;;2.67;2.35;;;28.40;1.00;;;;;;5039621;28;20056;-62
2022/05/10 13:47:55;;;;;;;3.45;1.90;;;28.20;1.00;;;;;;5039150;28;20495;-62
2022/05/10 13:51:23;;;;;;;3.60;2.08;;;28.20;1.00;;;;;;5027661;28;20099;-62
2022/05/10 13:54:48;;;;;;;2.80;1.90;;;28.20;1.00;;;;;;5039256;28;20037;-62
2022/05/10 13:58:16;;;;;;;3.83;2.40;;;28.20;1.00;;;;;;5037413;28;20120;-62
2022/05/10 14:01:55;;;;;;;4.10;2.47;;;28.00;1.00;;;;;;5036634;28;20029;-63
2022/05/10 14:05:21;;;;;;;3.38;2.22;;;27.90;1.00;;;;;;5043303;28;20412;-62
2022/05/10 14:08:45;;;;;;;3.25;2.03;;;27.70;1.00;;;;;;5038828;28;20072;-63
2022/05/10 14:12:11;;;;;;;4.15;1.92;;;27.60;1.00;;;;;;5041269;28;20317;-63
2022/05/10 14:15:19;;;;;;;7.70;2.30;;;27.70;1.20;;;;;;5035280;28;20037;-62
2022/05/10 14:18:47;;;;;;;4.28;2.10;;;27.60;1.20;;;;;;5006898;28;20146;-63
2022/05/10 14:22:13;;;;;;;6.68;2.08;;;27.70;1.00;;;;;;5033680;28;20295;-62
2022/05/10 14:25:19;;;;;;;2.35;1.88;;;27.80;1.30;;;;;;5006973;28;20038;-62
2022/05/10 14:28:46;;;;;;;2.33;2.00;;;27.70;1.00;;;;;;5032961;28;20520;-61
2022/05/10 14:32:15;;;;;;;2.70;1.77;;;27.70;1.00;;;;;;5007008;28;20046;-62
2022/05/10 14:35:43;;;;;;;5.25;2.30;;;27.40;1.00;;;;;;5035056;28;20076;-62
2022/05/10 14:39:09;;;;;;;3.88;1.92;;;27.30;1.00;;;;;;5026306;28;20045;-62
2022/05/10 14:42:46;;;;;;;3.45;2.40;;;27.10;1.00;;;;;;5042321;28;20087;-61
2022/05/10 14:46:11;;;;;;;3.20;1.98;;;26.80;1.60;;;;;;5045934;28;20057;-62
2022/05/10 14:49:06;;;;;;;2.65;2.08;;;26.60;2.00;;;;;;5044004;28;20033;-62
2022/05/10 14:51:44;;;;;;;2.33;2.13;;;26.70;1.80;;;;;;5029840;28;20489;-62
2022/05/10 14:54:12;;;;;;;2.22;1.92;;;26.90;1.60;;;;;;5047659;28;20489;-62
2022/05/10 14:56:47;;;;;;;2.35;1.52;;;27.00;1.30;;;;;;5030390;28;20121;-63
2022/05/10 14:59:51;;;;;;;3.33;2.05;;;27.20;1.10;;;;;;5010375;28;20393;-62
2022/05/10 15:02:38;;;;;;;4.55;1.98;;;27.20;1.00;;;;;;5016806;28;20040;-65
2022/05/10 15:05:09;;;;;;;2.78;2.00;;;27.20;1.00;;;;;;5049831;28;20056;-65
2022/05/10 15:07:35;;;;;;;3.53;1.88;;;27.20;1.20;;;;;;5034521;28;20670;-65
2022/05/10 15:10:00;;;;;;;3.67;1.98;;;27.10;1.20;;;;;;5049878;28;20037;-66
2022/05/10 15:15:11;;;;;;;2.53;2.00;;;26.80;1.30;;;;;;5048051;28;20043;-66
2022/05/10 15:20:24;;;;;;;2.20;1.88;;;26.70;1.50;;;;;;5011884;28;20038;-65
2022/05/10 15:22:49;;;;;;;3.95;1.90;;;26.80;1.50;;;;;;5048286;28;20121;-66
2022/05/10 15:25:16;;;;;;;3.97;1.80;;;26.70;1.40;;;;;;5033284;28;20486;-65
2022/05/10 15:27:42;;;;;;;3.03;2.10;;;26.60;1.10;;;;;;5049712;28;20029;-66
2022/05/10 15:30:09;;;;;;;2.58;2.05;;;26.70;1.50;;;;;;5032206;28;20408;-65
2022/05/10 15:32:34;;;;;;;4.25;2.30;;;26.80;1.30;;;;;;5050462;28;20032;-64
2022/05/10 15:35:02;;;;;;;2.70;2.03;;;26.80;1.10;;;;;;5032140;28;20029;-64
2022/05/10 15:37:30;;;;;;;3.65;2.17;;;26.80;1.20;;;;;;5050660;28;20495;-63
2022/05/10 15:39:56;;;;;;;4.93;2.17;;;26.90;1.20;;;;;;5031062;28;20029;-63
2022/05/10 15:42:26;;;;;;;2.75;1.98;;;26.80;1.20;;;;;;5050467;28;20029;-63
2022/05/10 15:44:51;;;;;;;6.32;2.30;;;26.80;1.00;;;;;;5030157;28;20025;-63
2022/05/10 15:47:23;;;;;;;4.05;2.20;;;26.80;1.30;;;;;;5050454;28;20487;-63
2022/05/10 15:49:49;;;;;;;2.75;1.90;;;26.70;1.20;;;;;;5029734;28;20496;-63
2022/05/10 15:52:15;;;;;;;2.17;1.98;;;26.50;1.20;;;;;;5050081;28;20024;-63
2022/05/10 15:54:40;;;;;;;3.40;1.73;;;26.40;1.20;;;;;;5029013;28;20029;-63
2022/05/10 15:57:07;;;;;;;3.17;2.03;;;26.40;1.40;;;;;;5049514;28;20017;-64
2022/05/10 15:59:32;;;;;;;2.50;1.80;;;26.40;1.50;;;;;;5032298;28;20097;-63
2022/05/10 16:01:59;;;;;;;3.08;2.00;;;26.40;1.60;;;;;;5041459;28;20029;-63
2022/05/10 16:04:26;;;;;;;2.08;1.83;;;26.40;1.60;;;;;;5049903;28;20033;-66
2022/05/10 16:06:52;;;;;;;3.65;2.00;;;26.40;1.70;;;;;;5046712;28;20104;-66
2022/05/10 16:09:18;;;;;;;2.55;2.00;;;26.30;1.60;;;;;;5049896;28;20033;-66
2022/05/10 16:11:44;;;;;;;3.35;2.10;;;26.30;1.60;;;;;;5045708;28;20025;-65
2022/05/10 16:14:12;;;;;;;2.13;1.73;;;26.20;1.60;;;;;;5047902;28;20072;-66
2022/05/10 16:16:38;;;;;;;2.33;1.80;;;26.20;1.40;;;;;;5049512;28;20033;-66
2022/05/10 16:19:04;;;;;;;2.17;1.88;;;26.20;1.50;;;;;;5044330;28;20664;-66
2022/05/10 16:21:33;;;;;;;2.60;1.85;;;26.10;1.60;;;;;;5049521;28;20171;-68
2022/05/10 16:24:00;;;;;;;2.75;1.92;;;26.10;1.60;;;;;;5042908;28;20508;-68